Ponca, Arkansas
Current Conditions -  °F | °C
As of 6:53 AM on Friday 24 Oct 2014 (Local Time) from KHRO Reporting Station
Clear Clear  
Wind Chill:   Ceiling: Unl
Heat Index:   Visibility: 9mi
Dew Point:   Wind: 0mph
Humidity: 100%   Direction: NA
Pressure: 30.13"   Gusts: NA
Location:  36.02°N, 93.37°W
Report Text: KHRO 241153Z AUTO 00000KT 9SM CLR 09/09 A3013 RMK AO2 SLP200 T00940094 10117 20083 51002
Loading
Personal Weather Stations






























Interactive Weather Map
Tropical Storm Tracking
New forecast layout! Learn more

10-Day Weather Forecast

Advertisements
Track Severe Weather on mobile